Time;durP1;ratioP1;P1;durP2;ratioP2;P2;SDS_P1;SDS_P2;PMS_P1;PMS_P2;Temp;Humidity;BMP_temperature;BMP_pressure;BME280_temperature;BME280_humidity;BME280_pressure;Samples;Min_cycle;Max_cycle;Signal;HPM_P1;HPM_P2
2022/02/05 00:00:26;;;;;;;5.86;2.84;;;-0.30;99.90;;;-0.35;87.88;97453.84;170341;29;1221;-75
2022/02/05 00:00:34;;;;;;;7.14;3.14;;;-0.30;99.90;;;-0.33;87.52;97455.41;169694;29;1432;-75
2022/02/05 00:00:44;;;;;;;6.03;3.05;;;-0.20;99.90;;;-0.37;87.50;97450.50;170198;29;1112;-75
2022/02/05 00:00:50;;;;;;;5.30;2.93;;;-0.20;99.90;;;-0.48;87.25;97427.53;169635;29;1229;-75
2022/02/05 00:01:04;;;;;;;5.30;2.70;;;-0.30;99.90;;;-0.31;87.31;97463.25;169244;29;1443;-75
2022/02/05 00:01:29;;;;;;;6.56;2.76;;;-0.30;99.90;;;-0.32;87.49;97453.63;168958;29;1442;-75
2022/02/05 00:01:46;;;;;;;7.94;2.80;;;-0.20;99.90;;;-0.32;87.73;97456.25;172258;28;1226;-75
2022/02/05 00:01:53;;;;;;;7.04;2.75;;;-0.20;99.90;;;-0.34;87.76;97450.25;172291;28;2101;-75
2022/02/05 00:02:06;;;;;;;6.40;2.77;;;-0.20;99.90;;;-0.34;88.29;97451.09;171902;28;955;-76
2022/02/05 00:02:24;;;;;;;6.63;2.90;;;-0.20;99.90;;;-0.31;87.63;97455.31;172622;28;1189;-75
2022/02/05 00:02:37;;;;;;;8.11;2.89;;;-0.20;99.90;;;-0.27;87.51;97454.94;172989;28;1360;-75
2022/02/05 00:02:57;;;;;;;8.21;2.84;;;-0.20;99.90;;;-0.32;87.40;97454.47;173045;28;1532;-75
2022/02/05 00:03:36;;;;;;;7.03;2.91;;;-0.20;99.90;;;-0.33;87.55;97447.47;173454;28;1442;-75
2022/02/05 00:03:47;;;;;;;6.64;3.00;;;-0.20;99.90;;;-0.32;87.76;97451.81;172488;28;1543;-75
2022/02/05 00:03:59;;;;;;;6.09;3.10;;;-0.20;99.90;;;-0.33;87.17;97452.78;172236;28;1445;-75
2022/02/05 00:04:09;;;;;;;6.05;3.25;;;-0.20;99.90;;;-0.30;87.05;97454.31;173676;28;1344;-75
2022/02/05 00:04:17;;;;;;;7.33;3.34;;;-0.20;99.90;;;-0.35;87.50;97452.03;172350;28;1368;-76
2022/02/05 00:04:23;;;;;;;7.20;3.33;;;-0.20;99.90;;;-0.55;87.55;97419.22;172099;28;1298;-75
2022/02/05 00:04:31;;;;;;;7.48;3.30;;;-0.20;99.90;;;-0.30;87.06;97457.81;171784;28;1334;-75
2022/02/05 00:04:37;;;;;;;7.37;3.42;;;-0.20;99.90;;;-0.30;87.42;97449.88;173081;28;1362;-75
2022/02/05 00:04:45;;;;;;;8.07;3.65;;;-0.20;99.90;;;-0.37;87.40;97445.19;172321;28;1450;-75
2022/02/05 00:04:51;;;;;;;7.98;3.42;;;-0.30;99.90;;;-0.36;87.42;97444.25;172757;28;1426;-75
2022/02/05 00:04:59;;;;;;;7.85;3.35;;;-0.20;99.90;;;-0.26;86.99;97467.19;172430;28;1361;-75
2022/02/05 00:05:05;;;;;;;7.87;3.40;;;-0.20;99.90;;;-0.36;87.13;97455.63;173664;28;1297;-75
2022/02/05 00:05:14;;;;;;;7.20;3.10;;;-0.20;99.90;;;-0.29;86.95;97464.78;172854;28;1966;-75
2022/02/05 00:05:25;;;;;;;6.38;3.00;;;-0.20;99.90;;;-0.38;86.64;97454.94;173518;28;1563;-75
2022/02/05 00:05:53;;;;;;;7.19;3.15;;;-0.30;99.90;;;-0.30;86.26;97462.25;173177;28;1196;-75
2022/02/05 00:06:04;;;;;;;7.07;3.15;;;-0.30;99.90;;;-0.44;86.57;97450.13;172303;28;1608;-75
2022/02/05 00:06:13;;;;;;;7.73;3.01;;;-0.30;99.90;;;-0.37;86.51;97461.91;172481;28;1357;-75
2022/02/05 00:06:22;;;;;;;7.83;2.93;;;-0.30;99.90;;;-0.31;87.12;97461.41;171544;28;1191;-75
2022/02/05 00:06:33;;;;;;;6.57;2.81;;;-0.30;99.90;;;-0.31;86.93;97463.25;173755;28;1556;-75
2022/02/05 00:06:43;;;;;;;5.93;2.78;;;-0.20;99.90;;;-0.32;86.85;97458.91;172927;28;1499;-75
2022/02/05 00:06:53;;;;;;;5.80;3.00;;;-0.20;99.90;;;-0.36;86.61;97457.47;173004;28;1230;-75
2022/02/05 00:06:58;;;;;;;6.16;2.99;;;-0.30;99.90;;;-0.36;86.61;97460.13;173243;28;1019;-75
2022/02/05 00:07:07;;;;;;;7.40;3.25;;;-0.30;99.90;;;-0.37;86.29;97453.13;172110;28;1476;-75
2022/02/05 00:07:14;;;;;;;8.03;3.50;;;-0.20;99.90;;;-0.39;86.46;97450.59;172791;28;1512;-75
2022/02/05 00:07:21;;;;;;;8.48;3.50;;;-0.30;99.90;;;-0.34;86.72;97459.00;173574;28;1261;-74
2022/02/05 00:07:29;;;;;;;9.32;3.58;;;-0.20;99.90;;;-0.39;86.82;97455.03;173182;28;997;-75
2022/02/05 00:07:40;;;;;;;8.23;3.27;;;-0.20;99.90;;;-0.50;86.70;97432.09;171695;28;1530;-76
2022/02/05 00:07:55;;;;;;;8.08;3.13;;;-0.30;99.90;;;-0.52;86.98;97432.19;172298;28;1270;-75
2022/02/05 00:08:31;;;;;;;6.95;3.03;;;-0.20;99.90;;;-0.54;87.14;97423.56;172407;28;1473;-75
2022/02/05 00:09:05;;;;;;;6.51;2.92;;;-0.20;99.90;;;-0.29;86.67;97466.59;172081;28;1291;-75
2022/02/05 00:09:29;;;;;;;7.39;2.94;;;-0.30;99.90;;;-0.38;86.10;97451.44;172455;28;1356;-75
2022/02/05 00:10:44;;;;;;;8.99;3.08;;;-0.30;99.90;;;-0.48;86.17;97443.41;171803;28;1496;-75
2022/02/05 00:12:54;;;;;;;6.54;3.15;;;-0.20;99.90;;;-0.31;86.82;97457.94;170840;28;1229;-75
2022/02/05 00:14:30;;;;;;;6.72;3.35;;;-0.20;99.90;;;-0.38;86.83;97452.28;171861;28;1204;-75
2022/02/05 00:15:35;;;;;;;8.19;3.15;;;-0.20;99.90;;;-0.45;86.41;97446.63;170290;29;1290;-76
2022/02/05 00:16:07;;;;;;;6.63;3.00;;;-0.30;99.90;;;-0.38;85.99;97459.38;171869;28;824;-75
2022/02/05 00:38:51;;;;;;;8.59;3.16;;;-0.40;99.90;;;-0.53;86.92;97453.50;172450;28;1182;-75
2022/02/05 00:39:57;;;;;;;8.04;3.17;;;-0.40;99.90;;;-0.50;86.71;97448.78;171178;28;1211;-75
2022/02/05 00:40:11;;;;;;;7.31;3.20;;;-0.30;99.90;;;-0.50;86.81;97447.94;171307;28;1247;-75
2022/02/05 00:40:38;;;;;;;9.61;3.34;;;-0.40;99.90;;;-0.51;86.53;97449.75;170341;29;1691;-75
2022/02/05 00:40:57;;;;;;;7.50;3.20;;;-0.40;99.90;;;-0.49;86.50;97445.19;171916;28;971;-75
2022/02/05 00:41:17;;;;;;;8.13;3.13;;;-0.40;99.90;;;-0.46;86.45;97454.69;171458;28;1497;-75
2022/02/05 00:41:49;;;;;;;8.18;2.91;;;-0.40;99.90;;;-0.54;87.00;97438.59;172056;28;1359;-75
2022/02/05 00:42:38;;;;;;;7.10;2.97;;;-0.30;99.90;;;-0.55;87.83;97439.53;172549;28;1197;-75
2022/02/05 00:42:44;;;;;;;5.50;2.80;;;-0.40;99.90;;;-0.53;87.93;97433.19;172427;28;1526;-75
2022/02/05 00:42:51;;;;;;;5.22;2.72;;;-0.40;99.90;;;-0.56;87.64;97427.28;172617;28;919;-75
2022/02/05 00:42:57;;;;;;;5.60;2.80;;;-0.40;99.90;;;-0.55;87.72;97432.44;172185;28;1095;-76
2022/02/05 00:43:03;;;;;;;6.00;2.90;;;-0.40;99.90;;;-0.62;87.95;97417.19;172631;28;1263;-75
2022/02/05 00:43:14;;;;;;;7.20;2.92;;;-0.40;99.90;;;-0.50;87.68;97432.94;171439;28;1009;-75
2022/02/05 00:43:21;;;;;;;7.72;3.06;;;-0.40;99.90;;;-0.68;87.54;97412.38;171802;28;1204;-76
2022/02/05 00:43:30;;;;;;;7.40;3.03;;;-0.30;99.90;;;-0.49;87.64;97434.63;172417;28;1505;-75
2022/02/05 00:43:36;;;;;;;6.67;2.87;;;-0.40;99.90;;;-0.46;87.67;97436.16;172088;28;1567;-75
2022/02/05 00:43:51;;;;;;;5.57;2.70;;;-0.40;99.90;;;-0.64;87.50;97403.25;173224;28;1074;-75
2022/02/05 00:44:00;;;;;;;5.79;2.70;;;-0.30;99.90;;;-0.56;87.33;97420.19;172367;28;1361;-75
2022/02/05 00:44:06;;;;;;;6.40;2.90;;;-0.30;99.90;;;-0.46;87.73;97436.16;172538;28;1504;-75
2022/02/05 00:44:12;;;;;;;6.88;2.88;;;-0.30;99.90;;;-0.47;87.83;97440.63;173796;28;1330;-75
2022/02/05 00:44:18;;;;;;;7.78;3.00;;;-0.30;99.90;;;-0.64;87.82;97406.75;172573;28;1513;-75
2022/02/05 00:44:24;;;;;;;7.97;2.97;;;-0.30;99.90;;;-0.66;87.75;97406.00;174520;28;1487;-75
2022/02/05 00:44:30;;;;;;;7.75;2.92;;;-0.40;99.90;;;-0.72;87.68;97397.72;174322;28;1246;-76
2022/02/05 00:44:36;;;;;;;8.55;3.22;;;-0.30;99.90;;;-0.50;87.68;97437.38;174007;28;974;-75
2022/02/05 00:44:42;;;;;;;8.82;3.42;;;-0.40;99.90;;;-0.55;88.12;97424.53;172838;28;1371;-75
2022/02/05 00:44:48;;;;;;;8.75;3.33;;;-0.30;99.90;;;-0.81;88.00;97379.94;173887;28;1344;-75
2022/02/05 00:44:54;;;;;;;8.55;3.40;;;-0.30;99.90;;;-0.52;87.90;97432.19;173487;28;1235;-75
2022/02/05 00:45:06;;;;;;;8.57;3.55;;;-0.30;99.90;;;-0.60;87.88;97416.09;172353;28;1502;-74
2022/02/05 00:45:12;;;;;;;8.20;3.38;;;-0.30;99.90;;;-0.55;87.59;97426.31;171373;28;1416;-75
2022/02/05 00:45:18;;;;;;;7.50;3.42;;;-0.30;99.90;;;-0.57;87.74;97418.50;172511;28;1557;-75
2022/02/05 00:45:26;;;;;;;7.18;3.50;;;-0.40;99.90;;;-0.50;88.14;97425.00;173540;28;1410;-76
2022/02/05 00:45:36;;;;;;;7.00;3.33;;;-0.30;99.90;;;-0.54;88.22;97420.91;173161;28;1492;-75
2022/02/05 00:45:51;;;;;;;6.86;3.17;;;-0.30;99.90;;;-0.45;87.97;97444.00;173726;28;1484;-75
2022/02/05 00:45:57;;;;;;;6.15;2.92;;;-0.30;99.90;;;-0.40;88.51;97445.44;172464;28;1493;-74
2022/02/05 00:46:05;;;;;;;4.90;2.60;;;-0.30;99.90;;;-0.42;88.49;97437.63;173003;28;1269;-75
2022/02/05 00:46:13;;;;;;;4.47;2.50;;;-0.30;99.90;;;-0.41;88.65;97433.19;171928;28;934;-75
2022/02/05 00:46:20;;;;;;;5.47;2.40;;;-0.30;99.90;;;-0.53;88.21;97422.59;172732;28;907;-75
2022/02/05 00:46:32;;;;;;;5.74;2.44;;;-0.30;99.90;;;-0.49;88.19;97433.78;172845;28;1333;-75
2022/02/05 00:46:40;;;;;;;7.05;2.64;;;-0.30;99.90;;;-0.50;88.39;97424.16;171919;28;2160;-75
2022/02/05 00:46:48;;;;;;;7.27;2.83;;;-0.30;99.90;;;-0.62;88.21;97402.16;171918;28;1487;-75
2022/02/05 00:46:54;;;;;;;7.88;3.07;;;-0.30;99.90;;;-0.46;87.71;97433.53;172777;28;1578;-75
2022/02/05 00:47:00;;;;;;;7.80;3.20;;;-0.30;99.90;;;-0.43;88.36;97438.59;173903;28;1361;-75
2022/02/05 00:47:06;;;;;;;7.50;3.27;;;-0.30;99.90;;;-0.43;88.36;97441.22;173471;28;1382;-75
2022/02/05 00:47:13;;;;;;;7.07;3.30;;;-0.30;99.90;;;-0.51;88.31;97425.97;171992;28;1287;-75
2022/02/05 00:47:19;;;;;;;6.84;3.18;;;-0.30;99.90;;;-0.34;88.37;97453.72;172270;28;1580;-75
2022/02/05 00:47:26;;;;;;;6.73;3.10;;;-0.30;99.90;;;-0.48;87.95;97424.88;171755;28;1498;-75
2022/02/05 00:47:33;;;;;;;6.48;3.04;;;-0.30;99.90;;;-0.37;87.93;97447.84;172427;28;1509;-75
2022/02/05 00:47:43;;;;;;;7.87;2.97;;;-0.20;99.90;;;-0.33;88.12;97458.06;173862;28;1383;-75
2022/02/05 00:47:49;;;;;;;7.70;2.79;;;-0.30;99.90;;;-0.45;87.85;97438.69;172765;28;2638;-75
2022/02/05 00:47:56;;;;;;;7.30;2.70;;;-0.30;99.90;;;-0.38;88.07;97443.50;172435;28;1475;-75
2022/02/05 00:48:03;;;;;;;7.34;2.76;;;-0.20;99.90;;;-0.45;88.03;97432.56;172899;28;1312;-75
2022/02/05 00:48:10;;;;;;;6.73;2.80;;;-0.30;99.90;;;-0.43;87.73;97439.44;174000;28;879;-75
2022/02/05 00:48:17;;;;;;;7.26;3.00;;;-0.20;99.90;;;-0.48;87.71;97428.38;172952;28;1517;-75
2022/02/05 00:48:24;;;;;;;7.90;3.00;;;-0.30;99.90;;;-0.37;87.71;97448.69;173139;28;1358;-75
2022/02/05 00:48:30;;;;;;;8.57;2.97;;;-0.20;99.90;;;-0.41;87.82;97441.13;173645;28;1388;-75
2022/02/05 00:48:36;;;;;;;7.43;3.08;;;-0.30;99.90;;;-0.37;87.88;97455.78;173279;28;1241;-75
2022/02/05 00:48:42;;;;;;;8.45;3.00;;;-0.20;99.90;;;-0.40;87.81;97442.78;171577;28;1568;-75
2022/02/05 00:48:49;;;;;;;8.38;3.13;;;-0.20;99.90;;;-0.44;87.78;97440.38;173483;28;1255;-75
2022/02/05 00:48:55;;;;;;;7.27;3.03;;;-0.20;99.90;;;-0.35;88.10;97445.91;172810;28;1303;-76
2022/02/05 00:49:01;;;;;;;7.00;3.00;;;-0.20;99.90;;;-0.33;88.11;97454.56;172576;28;1295;-75
2022/02/05 00:49:07;;;;;;;6.75;2.78;;;-0.20;99.90;;;-0.33;87.72;97449.28;173061;28;1866;-75
2022/02/05 00:49:14;;;;;;;5.50;2.75;;;-0.20;99.90;;;-0.36;88.15;97453.00;173704;28;1544;-75
2022/02/05 00:49:20;;;;;;;5.00;2.48;;;-0.20;99.90;;;-0.33;88.24;97450.13;172134;28;1130;-76
2022/02/05 00:49:26;;;;;;;5.38;2.45;;;-0.20;99.90;;;-0.36;87.85;97452.19;172607;28;1436;-75
2022/02/05 00:49:32;;;;;;;5.50;2.53;;;-0.20;99.90;;;-0.32;87.65;97453.63;172553;28;1030;-75
2022/02/05 00:49:38;;;;;;;5.55;2.50;;;-0.20;99.90;;;-0.36;88.17;97449.53;173875;28;1174;-75
2022/02/05 00:49:48;;;;;;;5.47;2.50;;;-0.20;99.90;;;-0.28;87.91;97460.34;173817;28;1322;-76
2022/02/05 00:49:58;;;;;;;5.99;2.58;;;-0.20;99.90;;;-0.28;87.86;97460.34;172570;28;1264;-75
2022/02/05 00:50:11;;;;;;;6.90;2.64;;;-0.20;99.90;;;-0.34;87.92;97451.09;172477;28;1616;-75
2022/02/05 00:50:21;;;;;;;6.33;2.85;;;-0.20;99.90;;;-0.32;87.60;97451.81;173780;28;1546;-75
2022/02/05 00:50:29;;;;;;;4.89;2.96;;;-0.20;99.90;;;-0.42;87.72;97435.00;174067;28;1353;-75
2022/02/05 00:50:39;;;;;;;4.33;2.83;;;-0.20;99.90;;;-0.30;88.04;97452.50;174038;28;1116;-75
2022/02/05 00:50:54;;;;;;;5.50;2.66;;;-0.20;99.90;;;-0.41;87.95;97436.66;174058;28;1202;-75
2022/02/05 00:51:12;;;;;;;5.90;2.63;;;-0.20;99.90;;;-0.34;87.67;97456.38;173157;28;1221;-75
2022/02/05 00:51:25;;;;;;;6.95;2.90;;;-0.20;99.90;;;-0.47;87.44;97424.75;172752;28;1368;-75
2022/02/05 00:51:36;;;;;;;8.16;3.20;;;-0.20;99.90;;;-0.40;87.46;97445.44;174413;28;1344;-75
2022/02/05 00:51:51;;;;;;;7.45;3.30;;;-0.20;99.90;;;-0.39;87.86;97449.75;173845;28;1362;-76
2022/02/05 00:52:06;;;;;;;6.54;3.19;;;-0.20;99.90;;;-0.35;87.46;97446.75;172511;28;1591;-75
2022/02/05 00:52:15;;;;;;;5.66;3.13;;;-0.20;99.90;;;-0.38;87.35;97446.16;172297;28;1357;-75
2022/02/05 00:52:21;;;;;;;5.05;3.02;;;-0.20;99.90;;;-0.41;87.44;97444.56;171882;28;978;-75
2022/02/05 00:52:27;;;;;;;6.57;3.10;;;-0.20;99.90;;;-0.35;87.27;97454.69;173550;28;1354;-76
2022/02/05 00:52:33;;;;;;;7.05;3.10;;;-0.20;99.90;;;-0.38;87.10;97446.16;172622;28;1349;-75
2022/02/05 00:52:39;;;;;;;7.05;3.10;;;-0.20;99.90;;;-0.34;86.79;97459.00;172879;28;1306;-76
2022/02/05 00:52:57;;;;;;;8.13;3.23;;;-0.20;99.90;;;-0.70;87.30;97398.44;173128;28;1467;-75
2022/02/05 00:53:28;;;;;;;7.40;2.88;;;-0.20;99.90;;;-0.43;87.07;97441.22;174567;28;1370;-75
2022/02/05 00:53:37;;;;;;;7.35;2.80;;;-0.20;99.90;;;-0.41;87.19;97441.13;173102;28;1220;-75
2022/02/05 00:53:46;;;;;;;7.00;2.97;;;-0.30;99.90;;;-0.33;87.18;97459.88;173111;28;1230;-76
2022/02/05 00:54:26;;;;;;;8.04;2.85;;;-0.30;99.90;;;-0.34;87.47;97456.38;169713;29;1203;-75
2022/02/05 00:54:26;;;;;;;8.47;2.73;;;-0.30;99.90;;;-0.36;87.30;97455.63;173166;28;1506;-75
2022/02/05 00:54:32;;;;;;;7.27;2.57;;;-0.30;99.90;;;-0.38;87.64;97447.00;172496;28;1262;-75
2022/02/05 00:54:40;;;;;;;7.18;2.72;;;-0.20;99.90;;;-0.44;87.41;97431.63;173176;28;1510;-75
2022/02/05 00:54:50;;;;;;;8.21;2.89;;;-0.30;99.90;;;-0.47;87.73;97431.88;172515;28;1373;-76
2022/02/05 00:55:07;;;;;;;8.89;2.83;;;-0.30;99.90;;;-0.52;87.42;97424.28;172432;28;1357;-75
2022/02/05 00:55:22;;;;;;;8.84;2.67;;;-0.30;99.90;;;-0.38;87.25;97451.44;171691;28;1349;-75
2022/02/05 00:55:33;;;;;;;8.01;2.66;;;-0.30;99.90;;;-0.46;87.48;97428.22;173236;28;1252;-75
2022/02/05 00:55:43;;;;;;;6.27;2.70;;;-0.30;99.90;;;-0.46;87.46;97431.72;173359;28;935;-75
2022/02/05 00:55:58;;;;;;;5.78;2.69;;;-0.30;99.90;;;-0.37;87.37;97447.84;171909;28;1204;-75
2022/02/05 00:56:17;;;;;;;6.06;2.79;;;-0.30;99.90;;;-0.43;87.19;97435.94;171200;28;1204;-75
2022/02/05 00:56:37;;;;;;;6.97;2.88;;;-0.30;99.90;;;-0.42;87.33;97437.63;172340;28;1396;-75
2022/02/05 00:57:17;;;;;;;5.75;2.75;;;-0.30;99.90;;;-0.39;87.23;97447.13;173020;28;1409;-75
2022/02/05 00:57:45;;;;;;;6.62;3.08;;;-0.30;99.90;;;-0.36;87.48;97445.06;172639;28;1217;-75
2022/02/05 00:57:51;;;;;;;4.68;2.67;;;-0.30;99.90;;;-0.34;86.98;97456.38;172441;28;1624;-75
2022/02/05 00:58:02;;;;;;;3.83;2.42;;;-0.30;99.90;;;-0.42;87.04;97435.00;171923;28;1364;-75
2022/02/05 00:58:08;;;;;;;4.60;2.42;;;-0.30;99.90;;;-0.42;87.19;97437.63;173182;28;1512;-76
2022/02/05 00:58:14;;;;;;;5.65;2.60;;;-0.30;99.90;;;-0.39;87.03;97445.31;172294;28;1526;-75
2022/02/05 00:58:20;;;;;;;6.60;2.70;;;-0.30;99.90;;;-0.33;87.43;97449.28;172551;28;1436;-75
2022/02/05 00:58:26;;;;;;;7.80;3.15;;;-0.30;99.90;;;-0.53;87.20;97416.47;172146;28;1372;-75
2022/02/05 00:58:36;;;;;;;9.73;3.28;;;-0.20;99.90;;;-0.31;87.36;97452.66;171667;28;1758;-75
2022/02/05 00:58:42;;;;;;;10.00;3.07;;;-0.30;99.90;;;-0.32;87.45;97450.97;172257;28;1447;-75
2022/02/05 00:58:48;;;;;;;9.50;3.27;;;-0.20;99.90;;;-0.53;87.50;97419.13;173312;28;877;-76
2022/02/05 00:58:54;;;;;;;8.38;2.78;;;-0.20;99.90;;;-0.39;87.26;97440.03;173854;28;912;-75
2022/02/05 00:59:00;;;;;;;7.22;2.80;;;-0.20;99.90;;;-0.37;87.22;97448.69;173040;28;1830;-75
2022/02/05 00:59:06;;;;;;;6.87;2.83;;;-0.30;99.90;;;-0.34;87.57;97452.88;173035;28;1336;-75
2022/02/05 00:59:19;;;;;;;6.60;2.80;;;-0.20;99.90;;;-0.30;87.67;97459.59;173169;28;1341;-75
2022/02/05 00:59:25;;;;;;;7.45;2.84;;;-0.20;99.90;;;-0.38;87.28;97440.88;173195;28;1405;-75
2022/02/05 00:59:32;;;;;;;7.30;2.78;;;-0.20;99.90;;;-0.30;87.66;97459.59;173248;28;1433;-75
2022/02/05 00:59:37;;;;;;;7.38;2.92;;;-0.20;99.90;;;-0.31;87.24;97457.94;172581;28;1326;-75
2022/02/05 00:59:43;;;;;;;8.13;3.10;;;-0.20;99.90;;;-0.40;87.06;97440.13;172611;28;1111;-75
2022/02/05 00:59:49;;;;;;;6.93;2.83;;;-0.30;99.90;;;-0.45;86.90;97433.41;173996;28;835;-75
2022/02/05 00:59:55;;;;;;;7.63;2.88;;;-0.20;99.90;;;-0.35;87.06;97451.19;173800;28;1202;-76
2022/02/05 01:00:01;;;;;;;7.55;3.05;;;-0.30;99.90;;;-0.47;87.26;97437.16;172860;28;1481;-75
2022/02/05 01:00:09;;;;;;;7.45;3.05;;;-0.20;99.90;;;-0.36;86.97;97449.53;173160;28;1370;-75
2022/02/05 01:00:18;;;;;;;6.76;2.88;;;-0.20;99.90;;;-0.33;87.33;97450.13;172975;28;1152;-75
2022/02/05 01:00:24;;;;;;;7.40;3.10;;;-0.30;99.90;;;-0.36;86.97;97453.00;172708;28;1277;-75
2022/02/05 01:00:35;;;;;;;7.78;3.05;;;-0.30;99.90;;;-0.36;87.07;97450.34;172371;28;1279;-75
2022/02/05 01:00:41;;;;;;;9.06;3.17;;;-0.20;99.90;;;-0.38;87.08;97454.94;172908;28;1433;-76
2022/02/05 01:00:47;;;;;;;9.67;3.07;;;-0.20;99.90;;;-0.35;86.82;97457.31;173251;28;1333;-75
2022/02/05 01:00:53;;;;;;;10.02;2.92;;;-0.30;99.90;;;-0.38;86.84;97446.16;172995;28;1241;-75
2022/02/05 01:00:58;;;;;;;9.37;2.83;;;-0.30;99.90;;;-0.45;86.74;97435.22;172466;28;1154;-75
2022/02/05 01:01:07;;;;;;;9.23;2.75;;;-0.30;99.90;;;-0.47;87.04;97432.69;172372;28;1221;-75
2022/02/05 01:01:13;;;;;;;6.64;2.81;;;-0.30;99.90;;;-0.36;86.44;97454.81;171987;28;1177;-75
2022/02/05 01:01:19;;;;;;;6.13;2.88;;;-0.20;99.90;;;-0.39;86.56;97449.75;172378;28;1318;-75
2022/02/05 01:01:25;;;;;;;5.97;2.90;;;-0.30;99.90;;;-0.39;86.44;97447.97;171844;28;1352;-75
2022/02/05 01:01:31;;;;;;;5.70;2.90;;;-0.30;99.90;;;-0.34;86.33;97456.38;172401;28;1103;-75
2022/02/05 01:01:37;;;;;;;5.75;2.75;;;-0.30;99.90;;;-0.37;86.64;97453.13;173100;28;1291;-76
2022/02/05 01:01:43;;;;;;;5.90;2.60;;;-0.30;99.90;;;-0.36;86.46;97449.53;173116;28;1212;-75
2022/02/05 01:01:50;;;;;;;6.30;2.72;;;-0.30;99.90;;;-0.29;86.29;97467.44;172565;28;1408;-75
2022/02/05 01:01:56;;;;;;;5.57;2.70;;;-0.30;99.90;;;-0.33;86.31;97455.41;173248;28;1397;-75
2022/02/05 01:02:02;;;;;;;5.25;2.65;;;-0.30;99.90;;;-0.48;86.56;97438.09;173140;28;1178;-75
2022/02/05 01:02:08;;;;;;;4.97;2.70;;;-0.30;99.90;;;-0.35;86.37;97459.13;171178;28;1298;-76
2022/02/05 01:02:14;;;;;;;4.57;2.55;;;-0.30;99.90;;;-0.43;86.44;97441.22;173089;28;1251;-74
2022/02/05 01:02:20;;;;;;;4.00;2.50;;;-0.30;99.90;;;-0.35;86.70;97453.84;173212;28;1215;-75
2022/02/05 01:02:26;;;;;;;4.77;2.53;;;-0.20;99.90;;;-0.47;86.57;97434.50;173570;28;1507;-75
2022/02/05 01:02:32;;;;;;;5.25;2.55;;;-0.20;99.90;;;-0.44;86.29;97437.75;173215;28;1117;-75
2022/02/05 01:02:38;;;;;;;5.50;2.50;;;-0.30;99.90;;;-0.49;86.59;97436.41;173116;28;1265;-75
2022/02/05 01:02:45;;;;;;;6.73;2.53;;;-0.30;99.90;;;-0.44;86.58;97443.03;172438;28;1177;-75
2022/02/05 01:02:50;;;;;;;7.68;2.70;;;-0.20;99.90;;;-0.47;86.18;97437.97;171732;28;1315;-75
2022/02/05 01:02:57;;;;;;;7.47;2.70;;;-0.20;99.90;;;-0.56;86.51;97437.84;172512;28;1189;-75
2022/02/05 01:03:04;;;;;;;7.53;2.60;;;-0.30;99.90;;;-0.47;86.35;97445.09;173502;28;1289;-75
2022/02/05 01:03:10;;;;;;;6.98;2.84;;;-0.30;99.90;;;-0.57;86.47;97430.91;173136;28;1524;-75
2022/02/05 01:03:16;;;;;;;6.95;3.08;;;-0.30;99.90;;;-0.46;86.68;97452.03;172365;28;1665;-75
2022/02/05 01:03:22;;;;;;;6.13;2.78;;;-0.30;99.90;;;-0.43;86.40;97459.75;173222;28;1210;-75
2022/02/05 01:03:28;;;;;;;5.97;2.73;;;-0.30;99.90;;;-0.44;86.37;97464.19;172431;28;1343;-75
2022/02/05 01:03:34;;;;;;;6.07;2.88;;;-0.30;99.90;;;-0.58;86.78;97445.91;173330;28;1017;-75
2022/02/05 01:03:41;;;;;;;7.10;2.80;;;-0.30;99.90;;;-0.62;87.01;97430.44;171935;28;923;-75
2022/02/05 01:03:47;;;;;;;5.90;2.60;;;-0.30;99.90;;;-0.41;87.01;97464.91;171798;28;1269;-75
2022/02/05 01:03:53;;;;;;;6.35;2.85;;;-0.30;99.90;;;-0.50;87.06;97451.44;171949;28;857;-75
2022/02/05 01:04:00;;;;;;;6.90;2.92;;;-0.30;99.90;;;-0.40;87.01;97463.94;172983;28;1297;-75
2022/02/05 01:04:06;;;;;;;6.68;2.84;;;-0.30;99.90;;;-0.51;86.81;97447.09;173309;28;1137;-75
2022/02/05 01:04:12;;;;;;;5.68;2.88;;;-0.30;99.90;;;-0.53;87.18;97442.91;174918;28;1302;-75
2022/02/05 01:04:18;;;;;;;6.18;3.00;;;-0.30;99.90;;;-0.49;87.48;97449.66;173380;28;1133;-75
2022/02/05 01:04:24;;;;;;;7.00;2.92;;;-0.30;99.90;;;-0.48;87.48;97448.69;172635;28;1296;-75
2022/02/05 01:04:30;;;;;;;6.87;2.90;;;-0.30;99.90;;;-0.48;87.36;97446.03;172403;28;1371;-76
2022/02/05 01:04:36;;;;;;;7.47;2.80;;;-0.30;99.90;;;-0.47;87.31;97451.19;173157;28;1264;-75
2022/02/05 01:04:42;;;;;;;7.75;2.90;;;-0.30;99.90;;;-0.42;87.23;97458.78;173164;28;1338;-74
2022/02/05 01:04:48;;;;;;;7.80;2.80;;;-0.30;99.90;;;-0.57;87.63;97434.34;173253;28;1047;-75
2022/02/05 01:04:54;;;;;;;6.73;2.83;;;-0.30;99.90;;;-0.38;87.42;97462.88;172595;28;1033;-75
2022/02/05 01:05:00;;;;;;;6.78;2.92;;;-0.30;99.90;;;-0.43;87.37;97457.94;171761;28;1323;-75
2022/02/05 01:05:06;;;;;;;7.80;3.00;;;-0.20;99.90;;;-0.49;87.50;97447.00;172187;28;1302;-75
2022/02/05 01:05:12;;;;;;;7.90;2.90;;;-0.30;99.90;;;-0.38;87.49;97462.88;172626;28;1257;-75
2022/02/05 01:05:20;;;;;;;7.43;2.80;;;-0.20;99.90;;;-0.37;87.66;97469.00;173103;28;1398;-75
2022/02/05 01:05:26;;;;;;;9.92;3.10;;;-0.30;99.90;;;-0.45;87.81;97451.91;173306;28;887;-75
2022/02/05 01:05:35;;;;;;;9.60;2.90;;;-0.20;99.90;;;-0.49;88.10;97442.56;173055;28;1394;-75
2022/02/05 01:05:42;;;;;;;8.20;2.80;;;-0.20;99.90;;;-0.49;88.04;97442.56;173165;28;1318;-75
2022/02/05 01:05:49;;;;;;;7.77;2.80;;;-0.20;99.90;;;-0.44;87.88;97452.75;172674;28;931;-75
2022/02/05 01:05:55;;;;;;;6.05;2.78;;;-0.20;99.90;;;-0.44;88.04;97448.31;171806;28;1449;-75
2022/02/05 01:06:02;;;;;;;5.65;2.78;;;-0.20;99.90;;;-0.41;88.23;97449.88;171768;28;1295;-75
2022/02/05 01:06:09;;;;;;;6.62;2.80;;;-0.20;99.90;;;-0.46;88.19;97449.38;171968;28;1711;-75
2022/02/05 01:06:15;;;;;;;6.97;2.80;;;-0.20;99.90;;;-0.39;88.35;97460.34;172257;28;1430;-75
2022/02/05 01:06:20;;;;;;;8.20;2.88;;;-0.20;99.90;;;-0.36;88.21;97463.56;173266;28;804;-76
2022/02/05 01:06:26;;;;;;;7.80;2.72;;;-0.20;99.90;;;-0.43;88.23;97449.16;173164;28;1317;-75
2022/02/05 01:06:33;;;;;;;7.15;2.67;;;-0.20;99.90;;;-0.49;88.24;97434.63;172430;28;1363;-75
2022/02/05 01:06:40;;;;;;;6.37;2.70;;;-0.20;99.90;;;-0.35;88.35;97467.91;172325;28;1441;-75
2022/02/05 01:06:46;;;;;;;5.45;2.78;;;-0.20;99.90;;;-0.44;88.57;97447.47;174279;28;1310;-76
2022/02/05 01:06:52;;;;;;;4.57;2.60;;;-0.20;99.90;;;-0.50;87.96;97437.38;173224;28;1105;-76
2022/02/05 01:06:58;;;;;;;4.60;2.60;;;-0.20;99.90;;;-0.43;88.55;97442.06;173127;28;1282;-75
2022/02/05 01:07:04;;;;;;;5.15;2.72;;;-0.20;99.90;;;-0.45;88.15;97437.84;173412;28;2007;-75
2022/02/05 01:07:10;;;;;;;5.25;2.80;;;-0.20;99.90;;;-0.28;88.23;97468.28;173889;28;1346;-75
2022/02/05 01:07:16;;;;;;;5.28;2.72;;;-0.20;99.90;;;-0.29;88.23;97464.78;172691;28;1417;-75
2022/02/05 01:07:22;;;;;;;5.73;2.80;;;-0.20;99.90;;;-0.31;88.12;97464.06;171904;28;1529;-75
2022/02/05 01:07:28;;;;;;;5.53;2.70;;;-0.20;99.90;;;-0.35;88.18;97459.97;171061;28;1086;-76
2022/02/05 01:07:34;;;;;;;5.55;2.70;;;-0.20;99.90;;;-0.37;88.12;97458.44;173340;28;1000;-75
2022/02/05 01:07:41;;;;;;;6.38;2.67;;;-0.20;99.90;;;-0.34;88.32;97461.66;173850;28;1331;-75
2022/02/05 01:07:47;;;;;;;6.47;2.80;;;-0.20;99.90;;;-0.35;88.41;97456.47;173071;28;1306;-75
2022/02/05 01:07:58;;;;;;;5.60;2.70;;;-0.20;99.90;;;-0.37;88.10;97453.13;172306;28;1349;-76
2022/02/05 01:08:04;;;;;;;7.50;3.11;;;-0.20;99.90;;;-0.36;88.06;97454.81;171788;28;1469;-75
2022/02/05 01:08:11;;;;;;;7.02;3.06;;;-0.20;99.90;;;-0.30;87.82;97476.31;172526;28;1399;-75
2022/02/05 01:08:17;;;;;;;7.18;2.97;;;-0.20;99.90;;;-0.59;87.72;97420.44;173095;28;1366;-75
2022/02/05 01:08:25;;;;;;;7.73;3.00;;;-0.20;99.90;;;-0.35;87.64;97462.63;172929;28;1559;-75
2022/02/05 01:08:32;;;;;;;5.70;2.67;;;-0.20;99.90;;;-0.40;87.38;97450.72;172874;28;1485;-75
2022/02/05 01:08:39;;;;;;;5.17;2.47;;;-0.20;99.90;;;-0.37;87.73;97453.13;171784;28;1084;-75
2022/02/05 01:08:45;;;;;;;6.60;2.70;;;-0.20;99.90;;;-0.29;87.68;97467.44;173018;28;1577;-75
2022/02/05 01:08:51;;;;;;;7.37;2.60;;;-0.20;99.90;;;-0.31;87.64;97468.53;172800;28;1083;-76
2022/02/05 01:08:58;;;;;;;7.67;2.63;;;-0.20;99.90;;;-0.31;87.85;97466.69;173279;28;1525;-75
2022/02/05 01:09:09;;;;;;;7.57;2.63;;;-0.20;99.90;;;-0.34;87.62;97464.31;173100;28;1443;-75
2022/02/05 01:09:21;;;;;;;6.20;2.61;;;-0.20;99.90;;;-0.35;87.53;97461.78;172636;28;1518;-76
2022/02/05 01:09:27;;;;;;;4.07;2.55;;;-0.20;99.90;;;-0.36;87.08;97457.47;173040;28;1570;-75
2022/02/05 01:09:33;;;;;;;5.13;2.70;;;-0.20;99.90;;;-0.44;86.86;97447.47;171956;28;1257;-75
2022/02/05 01:09:42;;;;;;;5.37;2.80;;;-0.20;99.90;;;-0.35;86.75;97464.41;172542;28;1071;-75
2022/02/05 01:09:49;;;;;;;6.03;3.07;;;-0.20;99.90;;;-0.36;86.90;97468.03;173349;28;1018;-76